PWSweather.com
Personal Weather Stations
Station Observations
METEOC500
Santo Antonio, FunchalPT 2020

Santo AntonioFunchalPT 2020

Lat: 32.678227, Lon: -16.945054

Elevation: 1669.94751

Station Type: WH Series

High Low Average
Temperature 66.7°F19.3°C 54.5°F12.5°C 59.5°F15.3°C
Dew Point 54.9°F12.7°C 47.3°F8.5°C 51.1°F10.6°C
Winds 8.1 mph 13.0 kmh Calm Calm 4.0 mph W6.4 kmh W
Wind Gusts 12.5 mph20.1 kmh 4.9 mph7.9 kmh 10.0 mph16.1 kmh
Humidity 82% 59% 74%
Pressure 30.24 in1024.0 mb 30.14 in1020.7 mb -
Precipitation 0.00 in0.0 mm - -
Hour Temp Dew Point Humidity Winds Wind Gusts Pressure Precip Precip Rate Daily Precip Total
12:08 AM 55.6°F13.1°C 49.8°F9.9°C 81% 5.4 mph NNW8.7 kmh NNW 10.1 mph16.3 kmh 30.24 in1024.0 mb 0.00 in0.0 mm 0.00 in0.0 mm 0.00 in0.0 mm
12:23 AM 55.4°F13.0°C 49.6°F9.8°C 81% 6.9 mph NNW11.1 kmh NNW 10.1 mph16.3 kmh 30.23 in1023.7 mb 0.00 in0.0 mm 0.00 in0.0 mm 0.00 in0.0 mm
12:39 AM 55.2°F12.9°C 49.1°F9.5°C 80% 5.6 mph NW9.0 kmh NW 10.1 mph16.3 kmh 30.23 in1023.7 mb 0.00 in0.0 mm 0.00 in0.0 mm 0.00 in0.0 mm
12:54 AM 55.0°F12.8°C 49.3°F9.6°C 81% 5.6 mph NNW9.0 kmh NNW 10.1 mph16.3 kmh 30.24 in1024.0 mb 0.00 in0.0 mm 0.00 in0.0 mm 0.00 in0.0 mm
01:09 AM 54.9°F12.7°C 48.7°F9.3°C 80% 5.4 mph NW8.7 kmh NW 10.1 mph16.3 kmh 30.23 in1023.7 mb 0.00 in0.0 mm 0.00 in0.0 mm 0.00 in0.0 mm
01:24 AM 55.0°F12.8°C 48.6°F9.2°C 79% 3.4 mph NNW5.5 kmh NNW 10.1 mph16.3 kmh 30.23 in1023.7 mb 0.00 in0.0 mm 0.00 in0.0 mm 0.00 in0.0 mm
01:39 AM 55.0°F12.8°C 48.9°F9.4°C 80% 5.4 mph NNW8.7 kmh NNW 10.1 mph16.3 kmh 30.23 in1023.7 mb 0.00 in0.0 mm 0.00 in0.0 mm 0.00 in0.0 mm
01:54 AM 55.0°F12.8°C 48.9°F9.4°C 80% 6.5 mph NNW10.5 kmh NNW 10.1 mph16.3 kmh 30.22 in1023.4 mb 0.00 in0.0 mm 0.00 in0.0 mm 0.00 in0.0 mm
02:09 AM 55.2°F12.9°C 49.8°F9.9°C 82% 6.3 mph NNW10.1 kmh NNW 10.1 mph16.3 kmh 30.22 in1023.4 mb 0.00 in0.0 mm 0.00 in0.0 mm 0.00 in0.0 mm
02:24 AM 55.0°F12.8°C 49.3°F9.6°C 81% 7.8 mph NNW12.6 kmh NNW 10.1 mph16.3 kmh 30.22 in1023.4 mb 0.00 in0.0 mm 0.00 in0.0 mm 0.00 in0.0 mm
02:39 AM 55.0°F12.8°C 49.3°F9.6°C 81% 7.6 mph NW12.2 kmh NW 10.1 mph16.3 kmh 30.22 in1023.4 mb 0.00 in0.0 mm 0.00 in0.0 mm 0.00 in0.0 mm
02:54 AM 55.0°F12.8°C 49.6°F9.8°C 82% 4.7 mph N7.6 kmh N 10.1 mph16.3 kmh 30.22 in1023.4 mb 0.00 in0.0 mm 0.00 in0.0 mm 0.00 in0.0 mm
03:09 AM 55.0°F12.8°C 49.3°F9.6°C 81% 6.3 mph NNW10.1 kmh NNW 10.1 mph16.3 kmh 30.22 in1023.4 mb 0.00 in0.0 mm 0.00 in0.0 mm 0.00 in0.0 mm
03:24 AM 55.0°F12.8°C 49.3°F9.6°C 81% 5.4 mph N8.7 kmh N 10.1 mph16.3 kmh 30.22 in1023.4 mb 0.00 in0.0 mm 0.00 in0.0 mm 0.00 in0.0 mm
03:40 AM 54.9°F12.7°C 49.5°F9.7°C 82% 7.2 mph N11.6 kmh N 10.1 mph16.3 kmh 30.21 in1023.0 mb 0.00 in0.0 mm 0.00 in0.0 mm 0.00 in0.0 mm
03:55 AM 54.9°F12.7°C 49.1°F9.5°C 81% 6.5 mph NW10.5 kmh NW 12.5 mph20.1 kmh 30.21 in1023.0 mb 0.00 in0.0 mm 0.00 in0.0 mm 0.00 in0.0 mm
04:10 AM 54.9°F12.7°C 49.5°F9.7°C 82% 5.6 mph NNW9.0 kmh NNW 10.1 mph16.3 kmh 30.21 in1023.0 mb 0.00 in0.0 mm 0.00 in0.0 mm 0.00 in0.0 mm
04:25 AM 54.5°F12.5°C 49.1°F9.5°C 82% 6.9 mph NNW11.1 kmh NNW 10.1 mph16.3 kmh 30.21 in1023.0 mb 0.00 in0.0 mm 0.00 in0.0 mm 0.00 in0.0 mm
04:40 AM 54.5°F12.5°C 48.4°F9.1°C 80% 8.1 mph NW13.0 kmh NW 10.1 mph16.3 kmh 30.20 in1022.7 mb 0.00 in0.0 mm 0.00 in0.0 mm 0.00 in0.0 mm
04:55 AM 54.9°F12.7°C 48.7°F9.3°C 80% 8.1 mph NNW13.0 kmh NNW 10.1 mph16.3 kmh 30.21 in1023.0 mb 0.00 in0.0 mm 0.00 in0.0 mm 0.00 in0.0 mm
05:10 AM 54.7°F12.6°C 48.6°F9.2°C 80% 5.6 mph N9.0 kmh N 10.1 mph16.3 kmh 30.21 in1023.0 mb 0.00 in0.0 mm 0.00 in0.0 mm 0.00 in0.0 mm
05:25 AM 54.5°F12.5°C 48.2°F9.0°C 79% 6.5 mph NNW10.5 kmh NNW 10.1 mph16.3 kmh 30.22 in1023.4 mb 0.00 in0.0 mm 0.00 in0.0 mm 0.00 in0.0 mm
05:40 AM 54.9°F12.7°C 48.2°F9.0°C 78% 7.8 mph NNW12.6 kmh NNW 12.5 mph20.1 kmh 30.22 in1023.4 mb 0.00 in0.0 mm 0.00 in0.0 mm 0.00 in0.0 mm
05:55 AM 55.0°F12.8°C 48.4°F9.1°C 78% 5.6 mph N9.0 kmh N 12.5 mph20.1 kmh 30.21 in1023.0 mb 0.00 in0.0 mm 0.00 in0.0 mm 0.00 in0.0 mm
06:10 AM 54.9°F12.7°C 48.2°F9.0°C 78% 4.5 mph NNW7.2 kmh NNW 12.5 mph20.1 kmh 30.21 in1023.0 mb 0.00 in0.0 mm 0.00 in0.0 mm 0.00 in0.0 mm
06:25 AM 54.9°F12.7°C 48.2°F9.0°C 78% 6.5 mph NNW10.5 kmh NNW 12.5 mph20.1 kmh 30.21 in1023.0 mb 0.00 in0.0 mm 0.00 in0.0 mm 0.00 in0.0 mm
06:40 AM 55.2°F12.9°C 48.2°F9.0°C 77% 7.2 mph NNW11.6 kmh NNW 10.1 mph16.3 kmh 30.22 in1023.4 mb 0.00 in0.0 mm 0.00 in0.0 mm 0.00 in0.0 mm
06:56 AM 55.4°F13.0°C 48.0°F8.9°C 76% 6.0 mph NNW9.7 kmh NNW 12.5 mph20.1 kmh 30.22 in1023.4 mb 0.00 in0.0 mm 0.00 in0.0 mm 0.00 in0.0 mm
07:11 AM 55.4°F13.0°C 48.0°F8.9°C 76% 7.6 mph NNW12.2 kmh NNW 12.5 mph20.1 kmh 30.22 in1023.4 mb 0.00 in0.0 mm 0.00 in0.0 mm 0.00 in0.0 mm
07:26 AM 55.6°F13.1°C 48.6°F9.2°C 77% 7.6 mph NNW12.2 kmh NNW 10.1 mph16.3 kmh 30.22 in1023.4 mb 0.00 in0.0 mm 0.00 in0.0 mm 0.00 in0.0 mm
07:41 AM 55.4°F13.0°C 48.7°F9.3°C 78% 7.2 mph N11.6 kmh N 12.5 mph20.1 kmh 30.22 in1023.4 mb 0.00 in0.0 mm 0.00 in0.0 mm 0.00 in0.0 mm
07:56 AM 54.9°F12.7°C 47.8°F8.8°C 77% 7.8 mph NNW12.6 kmh NNW 12.5 mph20.1 kmh 30.23 in1023.7 mb 0.00 in0.0 mm 0.00 in0.0 mm 0.00 in0.0 mm
08:11 AM 55.4°F13.0°C 47.3°F8.5°C 74% 5.6 mph NW9.0 kmh NW 10.1 mph16.3 kmh 30.23 in1023.7 mb 0.00 in0.0 mm 0.00 in0.0 mm 0.00 in0.0 mm
08:26 AM 56.3°F13.5°C 47.8°F8.8°C 73% 6.5 mph N10.5 kmh N 10.1 mph16.3 kmh 30.23 in1023.7 mb 0.00 in0.0 mm 0.00 in0.0 mm 0.00 in0.0 mm
08:41 AM 57.0°F13.9°C 48.7°F9.3°C 74% 6.0 mph N9.7 kmh N 12.5 mph20.1 kmh 30.23 in1023.7 mb 0.00 in0.0 mm 0.00 in0.0 mm 0.00 in0.0 mm
08:56 AM 57.4°F14.1°C 49.1°F9.5°C 74% 4.9 mph N7.9 kmh N 10.1 mph16.3 kmh 30.24 in1024.0 mb 0.00 in0.0 mm 0.00 in0.0 mm 0.00 in0.0 mm
09:11 AM 57.2°F14.0°C 50.0°F10.0°C 77% 4.9 mph NNW7.9 kmh NNW 7.6 mph12.2 kmh 30.24 in1024.0 mb 0.00 in0.0 mm 0.00 in0.0 mm 0.00 in0.0 mm
09:26 AM 57.4°F14.1°C 49.1°F9.5°C 74% 1.8 mph NNW2.9 kmh NNW 7.6 mph12.2 kmh 30.24 in1024.0 mb 0.00 in0.0 mm 0.00 in0.0 mm 0.00 in0.0 mm
09:41 AM 58.8°F14.9°C 49.1°F9.5°C 70% 1.8 mph NNE2.9 kmh NNE 7.6 mph12.2 kmh 30.24 in1024.0 mb 0.00 in0.0 mm 0.00 in0.0 mm 0.00 in0.0 mm
09:56 AM 61.7°F16.5°C 48.2°F9.0°C 61% 3.1 mph S5.0 kmh S 4.9 mph7.9 kmh 30.24 in1024.0 mb 0.00 in0.0 mm 0.00 in0.0 mm 0.00 in0.0 mm
10:11 AM 64.6°F18.1°C 50.4°F10.2°C 60% 3.1 mph SSW5.0 kmh SSW 7.6 mph12.2 kmh 30.24 in1024.0 mb 0.00 in0.0 mm 0.00 in0.0 mm 0.00 in0.0 mm
10:27 AM 65.8°F18.8°C 51.6°F10.9°C 60% 2.2 mph SSW3.5 kmh SSW 7.6 mph12.2 kmh 30.24 in1024.0 mb 0.00 in0.0 mm 0.00 in0.0 mm 0.00 in0.0 mm
10:42 AM 66.4°F19.1°C 52.9°F11.6°C 62% 3.1 mph ESE5.0 kmh ESE 7.6 mph12.2 kmh 30.23 in1023.7 mb 0.00 in0.0 mm 0.00 in0.0 mm 0.00 in0.0 mm
10:57 AM 66.6°F19.2°C 52.7°F11.5°C 61% 5.4 mph SSW8.7 kmh SSW 10.1 mph16.3 kmh 30.24 in1024.0 mb 0.00 in0.0 mm 0.00 in0.0 mm 0.00 in0.0 mm
11:12 AM 65.8°F18.8°C 52.9°F11.6°C 63% 3.4 mph SE5.5 kmh SE 12.5 mph20.1 kmh 30.24 in1024.0 mb 0.00 in0.0 mm 0.00 in0.0 mm 0.00 in0.0 mm
11:27 AM 65.5°F18.6°C 53.1°F11.7°C 64% 6.3 mph SSW10.1 kmh SSW 12.5 mph20.1 kmh 30.23 in1023.7 mb 0.00 in0.0 mm 0.00 in0.0 mm 0.00 in0.0 mm
11:42 AM 65.7°F18.7°C 53.6°F12.0°C 65% 7.2 mph SSW11.6 kmh SSW 12.5 mph20.1 kmh 30.23 in1023.7 mb 0.00 in0.0 mm 0.00 in0.0 mm 0.00 in0.0 mm
11:57 AM 65.7°F18.7°C 53.2°F11.8°C 64% 2.2 mph E3.5 kmh E 10.1 mph16.3 kmh 30.22 in1023.4 mb 0.00 in0.0 mm 0.00 in0.0 mm 0.00 in0.0 mm
12:12 PM 65.1°F18.4°C 51.8°F11.0°C 62% 3.4 mph S5.5 kmh S 7.6 mph12.2 kmh 30.22 in1023.4 mb 0.00 in0.0 mm 0.00 in0.0 mm 0.00 in0.0 mm
12:27 PM 64.9°F18.3°C 52.0°F11.1°C 63% 2.2 mph SSE3.5 kmh SSE 7.6 mph12.2 kmh 30.21 in1023.0 mb 0.00 in0.0 mm 0.00 in0.0 mm 0.00 in0.0 mm
12:42 PM 65.1°F18.4°C 53.1°F11.7°C 65% 1.8 mph SSE2.9 kmh SSE 10.1 mph16.3 kmh 30.20 in1022.7 mb 0.00 in0.0 mm 0.00 in0.0 mm 0.00 in0.0 mm
12:57 PM 64.6°F18.1°C 52.2°F11.2°C 64% 4.9 mph E7.9 kmh E 10.1 mph16.3 kmh 30.20 in1022.7 mb 0.00 in0.0 mm 0.00 in0.0 mm 0.00 in0.0 mm
01:13 PM 64.6°F18.1°C 50.0°F10.0°C 59% 4.9 mph ESE7.9 kmh ESE 10.1 mph16.3 kmh 30.19 in1022.4 mb 0.00 in0.0 mm 0.00 in0.0 mm 0.00 in0.0 mm
01:28 PM 65.8°F18.8°C 52.0°F11.1°C 61% 1.6 mph E2.6 kmh E 12.5 mph20.1 kmh 30.18 in1022.0 mb 0.00 in0.0 mm 0.00 in0.0 mm 0.00 in0.0 mm
01:43 PM 66.2°F19.0°C 53.2°F11.8°C 63% 3.8 mph SSW6.1 kmh SSW 10.1 mph16.3 kmh 30.17 in1021.7 mb 0.00 in0.0 mm 0.00 in0.0 mm 0.00 in0.0 mm
01:58 PM 66.2°F19.0°C 52.9°F11.6°C 62% 4.0 mph SSW6.4 kmh SSW 10.1 mph16.3 kmh 30.16 in1021.3 mb 0.00 in0.0 mm 0.00 in0.0 mm 0.00 in0.0 mm
02:13 PM 66.0°F18.9°C 53.4°F11.9°C 64% 4.7 mph S7.6 kmh S 12.5 mph20.1 kmh 30.16 in1021.3 mb 0.00 in0.0 mm 0.00 in0.0 mm 0.00 in0.0 mm
02:28 PM 65.7°F18.7°C 51.8°F11.0°C 61% 4.5 mph S7.2 kmh S 12.5 mph20.1 kmh 30.16 in1021.3 mb 0.00 in0.0 mm 0.00 in0.0 mm 0.00 in0.0 mm
02:43 PM 66.0°F18.9°C 52.7°F11.5°C 62% 2.9 mph S4.7 kmh S 10.1 mph16.3 kmh 30.16 in1021.3 mb 0.00 in0.0 mm 0.00 in0.0 mm 0.00 in0.0 mm
02:58 PM 66.7°F19.3°C 53.8°F12.1°C 63% 1.3 mph WSW2.1 kmh WSW 10.1 mph16.3 kmh 30.15 in1021.0 mb 0.00 in0.0 mm 0.00 in0.0 mm 0.00 in0.0 mm
03:13 PM 66.4°F19.1°C 54.7°F12.6°C 66% 3.4 mph SSW5.5 kmh SSW 12.5 mph20.1 kmh 30.15 in1021.0 mb 0.00 in0.0 mm 0.00 in0.0 mm 0.00 in0.0 mm
03:28 PM 66.2°F19.0°C 54.5°F12.5°C 66% 0.2 mph SSW0.3 kmh SSW 10.1 mph16.3 kmh 30.15 in1021.0 mb 0.00 in0.0 mm 0.00 in0.0 mm 0.00 in0.0 mm
03:43 PM 66.0°F18.9°C 54.3°F12.4°C 66% 2.5 mph S4.0 kmh S 10.1 mph16.3 kmh 30.14 in1020.7 mb 0.00 in0.0 mm 0.00 in0.0 mm 0.00 in0.0 mm
03:59 PM 66.0°F18.9°C 54.0°F12.2°C 65% 3.8 mph S6.1 kmh S 10.1 mph16.3 kmh 30.14 in1020.7 mb 0.00 in0.0 mm 0.00 in0.0 mm 0.00 in0.0 mm
04:14 PM 65.3°F18.5°C 54.9°F12.7°C 69% 4.9 mph SSW7.9 kmh SSW 10.1 mph16.3 kmh 30.15 in1021.0 mb 0.00 in0.0 mm 0.00 in0.0 mm 0.00 in0.0 mm
04:29 PM 64.4°F18.0°C 54.3°F12.4°C 70% 4.5 mph SW7.2 kmh SW 7.6 mph12.2 kmh 30.15 in1021.0 mb 0.00 in0.0 mm 0.00 in0.0 mm 0.00 in0.0 mm
04:44 PM 63.9°F17.7°C 54.7°F12.6°C 72% 6.5 mph SSW10.5 kmh SSW 10.1 mph16.3 kmh 30.16 in1021.3 mb 0.00 in0.0 mm 0.00 in0.0 mm 0.00 in0.0 mm
04:59 PM 63.1°F17.3°C 54.3°F12.4°C 73% 2.9 mph SSW4.7 kmh SSW 7.6 mph12.2 kmh 30.16 in1021.3 mb 0.00 in0.0 mm 0.00 in0.0 mm 0.00 in0.0 mm
05:14 PM 62.4°F16.9°C 54.3°F12.4°C 75% 6.0 mph S9.7 kmh S 12.5 mph20.1 kmh 30.15 in1021.0 mb 0.00 in0.0 mm 0.00 in0.0 mm 0.00 in0.0 mm
05:29 PM 61.9°F16.6°C 54.3°F12.4°C 76% 2.5 mph S4.0 kmh S 12.5 mph20.1 kmh 30.16 in1021.3 mb 0.00 in0.0 mm 0.00 in0.0 mm 0.00 in0.0 mm
05:44 PM 61.5°F16.4°C 54.7°F12.6°C 78% Calm Calm 4.9 mph7.9 kmh 30.15 in1021.0 mb 0.00 in0.0 mm 0.00 in0.0 mm 0.00 in0.0 mm
05:59 PM 61.0°F16.1°C 54.5°F12.5°C 79% 0.7 mph SSW1.1 kmh SSW 7.6 mph12.2 kmh 30.16 in1021.3 mb 0.00 in0.0 mm 0.00 in0.0 mm 0.00 in0.0 mm
06:14 PM 60.6°F15.9°C 53.8°F12.1°C 78% 1.6 mph SSW2.6 kmh SSW 4.9 mph7.9 kmh 30.16 in1021.3 mb 0.00 in0.0 mm 0.00 in0.0 mm 0.00 in0.0 mm
06:29 PM 60.3°F15.7°C 53.8°F12.1°C 79% Calm Calm 4.9 mph7.9 kmh 30.16 in1021.3 mb 0.00 in0.0 mm 0.00 in0.0 mm 0.00 in0.0 mm
06:44 PM 60.3°F15.7°C 53.8°F12.1°C 79% Calm Calm 4.9 mph7.9 kmh 30.17 in1021.7 mb 0.00 in0.0 mm 0.00 in0.0 mm 0.00 in0.0 mm
06:59 PM 59.7°F15.4°C 53.6°F12.0°C 80% 0.2 mph NW0.3 kmh NW 4.9 mph7.9 kmh 30.17 in1021.7 mb 0.00 in0.0 mm 0.00 in0.0 mm 0.00 in0.0 mm
07:14 PM 59.2°F15.1°C 53.1°F11.7°C 80% 0.9 mph NNW1.4 kmh NNW 4.9 mph7.9 kmh 30.17 in1021.7 mb 0.00 in0.0 mm 0.00 in0.0 mm 0.00 in0.0 mm
07:30 PM 58.8°F14.9°C 52.3°F11.3°C 79% 2.9 mph NNW4.7 kmh NNW 7.6 mph12.2 kmh 30.18 in1022.0 mb 0.00 in0.0 mm 0.00 in0.0 mm 0.00 in0.0 mm
07:45 PM 58.5°F14.7°C 52.3°F11.3°C 80% 4.0 mph NNW6.4 kmh NNW 7.6 mph12.2 kmh 30.18 in1022.0 mb 0.00 in0.0 mm 0.00 in0.0 mm 0.00 in0.0 mm
08:00 PM 58.1°F14.5°C 51.6°F10.9°C 79% 3.1 mph NW5.0 kmh NW 7.6 mph12.2 kmh 30.18 in1022.0 mb 0.00 in0.0 mm 0.00 in0.0 mm 0.00 in0.0 mm
08:15 PM 58.3°F14.6°C 51.8°F11.0°C 79% 3.4 mph NNW5.5 kmh NNW 7.6 mph12.2 kmh 30.19 in1022.4 mb 0.00 in0.0 mm 0.00 in0.0 mm 0.00 in0.0 mm
08:30 PM 58.6°F14.8°C 51.8°F11.0°C 78% 3.4 mph NW5.5 kmh NW 7.6 mph12.2 kmh 30.19 in1022.4 mb 0.00 in0.0 mm 0.00 in0.0 mm 0.00 in0.0 mm
08:45 PM 59.0°F15.0°C 52.2°F11.2°C 78% 4.5 mph NNW7.2 kmh NNW 10.1 mph16.3 kmh 30.19 in1022.4 mb 0.00 in0.0 mm 0.00 in0.0 mm 0.00 in0.0 mm
09:00 PM 58.8°F14.9°C 52.0°F11.1°C 78% 3.8 mph N6.1 kmh N 10.1 mph16.3 kmh 30.19 in1022.4 mb 0.00 in0.0 mm 0.00 in0.0 mm 0.00 in0.0 mm
09:15 PM 58.8°F14.9°C 52.3°F11.3°C 79% 4.0 mph NNW6.4 kmh NNW 7.6 mph12.2 kmh 30.20 in1022.7 mb 0.00 in0.0 mm 0.00 in0.0 mm 0.00 in0.0 mm
09:30 PM 58.6°F14.8°C 52.2°F11.2°C 79% 2.5 mph NNW4.0 kmh NNW 7.6 mph12.2 kmh 30.20 in1022.7 mb 0.00 in0.0 mm 0.00 in0.0 mm 0.00 in0.0 mm
09:45 PM 58.5°F14.7°C 52.0°F11.1°C 79% 5.6 mph NNW9.0 kmh NNW 7.6 mph12.2 kmh 30.20 in1022.7 mb 0.00 in0.0 mm 0.00 in0.0 mm 0.00 in0.0 mm
10:00 PM 58.3°F14.6°C 51.4°F10.8°C 78% 4.9 mph NNW7.9 kmh NNW 10.1 mph16.3 kmh 30.19 in1022.4 mb 0.00 in0.0 mm 0.00 in0.0 mm 0.00 in0.0 mm
10:15 PM 58.1°F14.5°C 51.6°F10.9°C 79% 4.0 mph NNW6.4 kmh NNW 10.1 mph16.3 kmh 30.19 in1022.4 mb 0.00 in0.0 mm 0.00 in0.0 mm 0.00 in0.0 mm
10:31 PM 58.1°F14.5°C 51.6°F10.9°C 79% 4.5 mph N7.2 kmh N 7.6 mph12.2 kmh 30.19 in1022.4 mb 0.00 in0.0 mm 0.00 in0.0 mm 0.00 in0.0 mm
10:46 PM 58.1°F14.5°C 51.3°F10.7°C 78% 6.0 mph N9.7 kmh N 10.1 mph16.3 kmh 30.18 in1022.0 mb 0.00 in0.0 mm 0.00 in0.0 mm 0.00 in0.0 mm
11:01 PM 58.1°F14.5°C 52.0°F11.1°C 80% 4.5 mph NNW7.2 kmh NNW 10.1 mph16.3 kmh 30.19 in1022.4 mb 0.00 in0.0 mm 0.00 in0.0 mm 0.00 in0.0 mm
11:16 PM 57.7°F14.3°C 51.3°F10.7°C 79% 3.8 mph N6.1 kmh N 10.1 mph16.3 kmh 30.18 in1022.0 mb 0.00 in0.0 mm 0.00 in0.0 mm 0.00 in0.0 mm
11:31 PM 57.7°F14.3°C 51.3°F10.7°C 79% 4.9 mph N7.9 kmh N 7.6 mph12.2 kmh 30.17 in1021.7 mb 0.00 in0.0 mm 0.00 in0.0 mm 0.00 in0.0 mm
11:46 PM 57.4°F14.1°C 52.0°F11.1°C 82% 4.7 mph NNW7.6 kmh NNW 7.6 mph12.2 kmh 30.18 in1022.0 mb 0.00 in0.0 mm 0.00 in0.0 mm 0.00 in0.0 mm